createdAt,value
2022-08-23T00:01:41.803Z,2.80
2022-08-23T00:04:20.677Z,2.28
2022-08-23T00:06:49.802Z,2.22
2022-08-23T00:09:17.312Z,2.35
2022-08-23T00:11:47.650Z,2.45
2022-08-23T00:14:18.842Z,2.88
2022-08-23T00:16:46.394Z,2.47
2022-08-23T00:19:16.610Z,2.22
2022-08-23T00:21:44.519Z,2.50
2022-08-23T00:24:14.234Z,2.53
2022-08-23T00:26:53.861Z,2.13
2022-08-23T00:29:22.337Z,2.28
2022-08-23T00:31:51.808Z,2.20
2022-08-23T00:34:18.837Z,2.70
2022-08-23T00:36:45.655Z,2.40
2022-08-23T00:39:12.856Z,2.38
2022-08-23T00:41:40.040Z,2.78
2022-08-23T00:44:32.205Z,2.25
2022-08-23T00:47:17.981Z,2.20
2022-08-23T00:49:50.232Z,2.47
2022-08-23T00:52:29.442Z,2.38
2022-08-23T00:54:58.027Z,2.55
2022-08-23T00:57:25.754Z,2.65
2022-08-23T00:59:52.876Z,2.30
2022-08-23T01:02:20.099Z,2.33
2022-08-23T01:04:58.231Z,2.20
2022-08-23T01:07:41.498Z,2.20
2022-08-23T01:10:21.090Z,2.55
2022-08-23T01:12:56.494Z,2.40
2022-08-23T01:15:30.386Z,2.40
2022-08-23T01:18:09.296Z,2.83
2022-08-23T01:20:49.015Z,2.40
2022-08-23T01:23:42.025Z,2.55
2022-08-23T01:26:10.346Z,2.80
2022-08-23T01:28:40.923Z,2.72
2022-08-23T01:31:14.200Z,2.30
2022-08-23T01:33:42.507Z,2.65
2022-08-23T01:36:15.398Z,2.45
2022-08-23T01:38:42.234Z,2.40
2022-08-23T01:41:09.495Z,2.45
2022-08-23T01:43:36.711Z,2.60
2022-08-23T01:46:18.020Z,2.70
2022-08-23T01:48:47.011Z,2.78
2022-08-23T01:51:16.756Z,2.53
2022-08-23T01:53:43.801Z,2.42
2022-08-23T01:56:10.685Z,2.50
2022-08-23T01:58:37.764Z,2.20
2022-08-23T02:01:05.732Z,2.80
2022-08-23T02:03:33.874Z,2.40
2022-08-23T02:06:00.959Z,2.40
2022-08-23T02:08:49.293Z,2.33
2022-08-23T02:11:24.664Z,2.70
2022-08-23T02:13:53.148Z,2.65
2022-08-23T02:17:03.105Z,2.38
2022-08-23T02:19:34.457Z,2.60
2022-08-23T02:22:02.004Z,2.53
2022-08-23T02:24:31.064Z,2.47
2022-08-23T02:27:02.056Z,2.20
2022-08-23T02:29:32.186Z,2.88
2022-08-23T02:32:00.691Z,2.20
2022-08-23T02:34:29.031Z,2.40
2022-08-23T02:36:56.097Z,2.53
2022-08-23T02:39:23.122Z,2.58
2022-08-23T02:41:50.104Z,2.60
2022-08-23T02:44:16.972Z,2.78
2022-08-23T02:46:43.884Z,2.50
2022-08-23T02:49:11.596Z,2.40
2022-08-23T02:51:39.697Z,2.50
2022-08-23T02:54:07.183Z,2.55
2022-08-23T02:56:34.206Z,2.55
2022-08-23T02:59:01.117Z,2.50
2022-08-23T03:01:31.737Z,2.85
2022-08-23T03:04:00.186Z,2.75
2022-08-23T03:06:27.955Z,2.20
2022-08-23T03:08:56.535Z,2.55
2022-08-23T03:11:25.040Z,1.98
2022-08-23T03:13:53.726Z,2.33
2022-08-23T03:16:21.073Z,2.30
2022-08-23T03:18:48.989Z,2.08
2022-08-23T03:21:17.173Z,2.35
2022-08-23T03:23:44.363Z,2.58
2022-08-23T03:26:13.298Z,2.30
2022-08-23T03:28:41.942Z,2.22
2022-08-23T03:31:09.770Z,2.20
2022-08-23T03:33:37.214Z,2.15
2022-08-23T03:36:07.473Z,2.65
2022-08-23T03:38:34.356Z,2.22
2022-08-23T03:41:01.510Z,2.25
2022-08-23T03:43:28.677Z,2.58
2022-08-23T03:45:55.694Z,2.30
2022-08-23T03:48:22.838Z,2.70
2022-08-23T03:50:49.610Z,2.58
2022-08-23T03:53:17.941Z,2.20
2022-08-23T03:55:46.331Z,2.42
2022-08-23T03:58:13.350Z,2.67
2022-08-23T04:00:40.451Z,2.55
2022-08-23T04:03:07.325Z,2.33
2022-08-23T04:05:34.493Z,2.50
2022-08-23T04:08:07.467Z,2.08
2022-08-23T04:10:34.573Z,2.47
2022-08-23T04:13:01.587Z,2.15
2022-08-23T04:15:28.670Z,2.30
2022-08-23T04:17:55.543Z,2.58
2022-08-23T04:20:22.381Z,2.53
2022-08-23T04:22:52.976Z,2.20
2022-08-23T04:25:34.607Z,2.33
2022-08-23T04:28:02.440Z,2.33
2022-08-23T04:30:29.782Z,2.13
2022-08-23T04:32:57.387Z,2.00
2022-08-23T04:35:25.536Z,2.13
2022-08-23T04:37:53.215Z,2.22
2022-08-23T04:40:38.856Z,2.33
2022-08-23T04:43:08.406Z,2.55
2022-08-23T04:45:39.263Z,2.45
2022-08-23T04:48:07.074Z,2.60
2022-08-23T04:50:39.366Z,2.63
2022-08-23T04:53:06.629Z,2.22
2022-08-23T04:55:33.574Z,2.55
2022-08-23T04:58:03.811Z,3.00
2022-08-23T05:00:30.972Z,2.40
2022-08-23T05:02:57.888Z,2.58
2022-08-23T05:05:25.000Z,2.10
2022-08-23T05:07:51.758Z,2.67
2022-08-23T05:10:18.721Z,2.83
2022-08-23T05:12:46.259Z,2.50
2022-08-23T05:15:13.733Z,2.72
2022-08-23T05:17:40.783Z,2.30
2022-08-23T05:20:10.347Z,2.63
2022-08-23T05:22:39.535Z,2.55
2022-08-23T05:25:06.728Z,2.72
2022-08-23T05:27:33.987Z,2.45
2022-08-23T05:30:00.791Z,2.55
2022-08-23T05:32:30.410Z,2.67
2022-08-23T05:35:00.616Z,2.63
2022-08-23T05:37:27.880Z,3.00
2022-08-23T05:39:54.737Z,2.40
2022-08-23T05:42:22.370Z,2.50
2022-08-23T05:44:49.318Z,2.50
2022-08-23T05:47:17.534Z,2.63
2022-08-23T05:49:52.027Z,2.22
2022-08-23T05:52:18.926Z,2.38
2022-08-23T05:54:45.982Z,2.42
2022-08-23T05:57:12.800Z,2.83
2022-08-23T05:59:41.771Z,2.50
2022-08-23T06:02:09.026Z,2.38
2022-08-23T06:04:36.199Z,2.60
2022-08-23T06:07:05.931Z,2.58
2022-08-23T06:09:32.908Z,2.33
2022-08-23T06:12:00.156Z,2.88
2022-08-23T06:14:28.033Z,2.30
2022-08-23T06:16:56.244Z,2.60
2022-08-23T06:19:24.665Z,2.58
2022-08-23T06:21:52.859Z,2.65
2022-08-23T06:24:20.428Z,2.42
2022-08-23T06:26:48.061Z,2.83
2022-08-23T06:29:17.760Z,2.45
2022-08-23T06:31:47.840Z,2.53
2022-08-23T06:34:20.330Z,2.20
2022-08-23T06:36:50.273Z,2.25
2022-08-23T06:39:18.375Z,2.22
2022-08-23T06:41:45.943Z,2.28
2022-08-23T06:44:13.025Z,2.50
2022-08-23T06:46:43.345Z,2.85
2022-08-23T06:49:10.551Z,2.25
2022-08-23T06:51:43.914Z,2.22
2022-08-23T06:54:14.231Z,2.13
2022-08-23T06:56:43.460Z,2.20
2022-08-23T06:59:10.336Z,2.15
2022-08-23T07:01:46.773Z,2.20
2022-08-23T07:04:17.150Z,2.80
2022-08-23T07:06:44.509Z,2.03
2022-08-23T07:09:11.577Z,2.85
2022-08-23T07:11:39.475Z,2.63
2022-08-23T07:14:10.511Z,2.35
2022-08-23T07:16:41.185Z,2.35
2022-08-23T07:19:09.267Z,2.22
2022-08-23T07:21:37.258Z,2.42
2022-08-23T07:24:04.697Z,2.65
2022-08-23T07:26:32.229Z,2.63
2022-08-23T07:28:59.333Z,2.50
2022-08-23T07:31:31.027Z,2.75
2022-08-23T07:34:03.726Z,2.70
2022-08-23T07:36:32.466Z,2.47
2022-08-23T07:39:00.764Z,2.67
2022-08-23T07:41:30.997Z,2.70
2022-08-23T07:44:04.244Z,2.33
2022-08-23T07:46:33.191Z,2.88
2022-08-23T07:49:01.991Z,2.45
2022-08-23T07:51:30.837Z,2.30
2022-08-23T07:53:59.104Z,2.58
2022-08-23T07:56:25.988Z,2.67
2022-08-23T07:58:53.314Z,2.10
2022-08-23T08:01:23.797Z,2.30
2022-08-23T08:03:54.117Z,2.35
2022-08-23T08:06:27.457Z,2.53
2022-08-23T08:08:55.604Z,2.50
2022-08-23T08:11:25.513Z,2.38
2022-08-23T08:13:53.116Z,2.63
2022-08-23T08:16:30.678Z,2.42
2022-08-23T08:19:00.605Z,2.72
2022-08-23T08:21:28.717Z,2.50
2022-08-23T08:23:57.558Z,2.10
2022-08-23T08:26:25.700Z,2.20
2022-08-23T08:28:53.106Z,2.20
2022-08-23T08:31:20.187Z,2.53
2022-08-23T08:33:47.201Z,2.30
2022-08-23T08:36:37.265Z,2.13
2022-08-23T08:39:11.586Z,2.03
2022-08-23T08:42:17.845Z,2.05
2022-08-23T08:45:09.549Z,1.90
2022-08-23T08:47:36.536Z,2.00
2022-08-23T08:50:09.674Z,2.20
2022-08-23T08:52:40.987Z,2.25
2022-08-23T08:55:11.259Z,1.90
2022-08-23T08:57:46.153Z,2.20
2022-08-23T09:02:46.326Z,1.80
2022-08-23T09:05:37.278Z,1.90
2022-08-23T09:08:54.159Z,1.90
2022-08-23T09:12:02.563Z,2.03
2022-08-23T09:14:38.535Z,2.00
2022-08-23T09:17:19.458Z,2.05
2022-08-23T09:19:49.981Z,1.92
2022-08-23T09:22:25.971Z,1.60
2022-08-23T09:24:52.939Z,2.10
2022-08-23T09:27:20.251Z,1.70
2022-08-23T09:29:58.765Z,2.13
2022-08-23T09:32:36.070Z,1.80
2022-08-23T09:35:18.170Z,2.08
2022-08-23T09:37:51.026Z,2.03
2022-08-23T09:40:38.956Z,1.88
2022-08-23T09:43:13.216Z,1.98
2022-08-23T09:45:50.909Z,2.00
2022-08-23T09:48:36.725Z,1.83
2022-08-23T09:51:21.758Z,1.58
2022-08-23T09:56:24.811Z,1.58
2022-08-23T09:58:53.843Z,1.83
2022-08-23T10:01:27.455Z,1.98
2022-08-23T10:04:10.343Z,1.95
2022-08-23T10:06:38.092Z,2.08
2022-08-23T10:09:07.410Z,1.92
2022-08-23T10:11:47.705Z,1.90
2022-08-23T10:14:21.020Z,1.90
2022-08-23T10:17:08.206Z,1.80
2022-08-23T10:19:59.218Z,1.90
2022-08-23T10:23:20.140Z,1.50
2022-08-23T10:25:58.269Z,1.80
2022-08-23T10:29:08.812Z,2.00
2022-08-23T10:31:59.367Z,1.90
2022-08-23T10:34:51.002Z,1.75
2022-08-23T10:37:42.085Z,1.80
2022-08-23T10:40:44.306Z,1.90
2022-08-23T10:43:14.001Z,1.85
2022-08-23T10:45:43.746Z,1.80
2022-08-23T10:48:28.725Z,1.75
2022-08-23T10:51:01.153Z,2.20
2022-08-23T10:54:00.726Z,1.65
2022-08-23T10:56:29.059Z,1.83
2022-08-23T10:59:03.331Z,1.95
2022-08-23T11:02:01.684Z,1.95
2022-08-23T11:04:53.602Z,1.58
2022-08-23T11:07:49.605Z,1.70
2022-08-23T11:10:39.891Z,1.85
2022-08-23T11:13:12.918Z,1.90
2022-08-23T11:15:54.955Z,1.88
2022-08-23T11:18:49.471Z,1.77
2022-08-23T11:21:19.573Z,1.88
2022-08-23T11:23:59.949Z,1.77
2022-08-23T11:26:26.768Z,1.73
2022-08-23T11:29:22.627Z,2.03
2022-08-23T11:31:57.233Z,1.58
2022-08-23T11:35:09.262Z,1.75
2022-08-23T11:37:57.457Z,1.90
2022-08-23T11:40:58.495Z,1.80
2022-08-23T11:43:37.095Z,2.03
2022-08-23T11:46:14.768Z,2.00
2022-08-23T11:48:45.231Z,2.08
2022-08-23T11:51:21.975Z,1.92
2022-08-23T11:54:02.976Z,1.92
2022-08-23T11:57:15.125Z,1.70
2022-08-23T12:00:11.369Z,1.83
2022-08-23T12:02:38.240Z,1.90
2022-08-23T12:05:34.187Z,1.85
2022-08-23T12:08:04.267Z,1.45
2022-08-23T12:10:43.795Z,1.85
2022-08-23T12:13:19.752Z,2.38
2022-08-23T12:16:28.818Z,1.95
2022-08-23T12:19:01.109Z,1.80
2022-08-23T12:21:47.068Z,1.85
2022-08-23T12:24:35.566Z,2.28
2022-08-23T12:27:14.198Z,1.58
2022-08-23T12:30:07.469Z,1.92
2022-08-23T12:32:55.954Z,1.48
2022-08-23T12:35:50.700Z,1.95
2022-08-23T12:38:45.092Z,1.60
2022-08-23T12:41:27.326Z,1.85
2022-08-23T12:44:17.912Z,1.80
2022-08-23T12:46:47.893Z,1.77
2022-08-23T12:49:31.474Z,1.90
2022-08-23T12:52:01.048Z,1.80
2022-08-23T12:54:39.337Z,1.70
2022-08-23T12:57:11.708Z,1.90
2022-08-23T13:00:18.480Z,2.13
2022-08-23T13:03:02.793Z,1.95
2022-08-23T13:05:35.054Z,1.50
2022-08-23T13:08:07.014Z,1.52
2022-08-23T13:10:34.818Z,1.75
2022-08-23T13:13:01.986Z,1.60
2022-08-23T13:16:00.492Z,1.98
2022-08-23T13:18:42.997Z,1.88
2022-08-23T13:21:31.962Z,1.80
2022-08-23T13:24:39.040Z,1.88
2022-08-23T13:27:22.067Z,1.70
2022-08-23T13:29:54.583Z,1.58
2022-08-23T13:32:27.020Z,2.08
2022-08-23T13:34:54.407Z,1.75
2022-08-23T13:37:30.697Z,1.80
2022-08-23T13:40:10.968Z,1.77
2022-08-23T13:42:50.975Z,1.73
2022-08-23T13:45:31.440Z,1.77
2022-08-23T13:48:10.595Z,1.80
2022-08-23T13:50:38.978Z,1.83
2022-08-23T13:53:15.390Z,1.98
2022-08-23T13:55:54.837Z,1.98
2022-08-23T13:58:33.822Z,2.00
2022-08-23T14:01:02.048Z,1.70
2022-08-23T14:03:31.460Z,1.88
2022-08-23T14:05:58.455Z,1.90
2022-08-23T14:08:25.492Z,2.00
2022-08-23T14:10:52.536Z,1.85
2022-08-23T14:13:23.917Z,2.05
2022-08-23T14:16:32.280Z,1.98
2022-08-23T14:19:14.501Z,1.67
2022-08-23T14:21:24.602Z,1.88
2022-08-23T14:23:51.731Z,1.90
2022-08-23T14:26:20.134Z,2.10
2022-08-23T14:28:47.003Z,1.60
2022-08-23T14:31:20.305Z,1.85
2022-08-23T14:33:48.403Z,1.70
2022-08-23T14:36:15.984Z,1.63
2022-08-23T14:38:42.937Z,2.15
2022-08-23T14:41:13.366Z,2.00
2022-08-23T14:43:40.214Z,1.90
2022-08-23T14:46:07.123Z,2.05
2022-08-23T14:48:36.931Z,1.77
2022-08-23T14:51:04.698Z,1.80
2022-08-23T14:53:36.163Z,2.00
2022-08-23T14:56:20.344Z,1.98
2022-08-23T14:58:49.271Z,2.17
2022-08-23T15:01:17.209Z,2.20
2022-08-23T15:03:44.113Z,2.22
2022-08-23T15:06:12.950Z,1.75
2022-08-23T15:08:40.792Z,2.25
2022-08-23T15:13:59.914Z,1.85
2022-08-23T15:16:27.573Z,1.77
2022-08-23T15:18:56.458Z,1.98
2022-08-23T15:21:23.475Z,2.00
2022-08-23T15:23:50.779Z,1.75
2022-08-23T15:26:21.429Z,1.95
2022-08-23T15:28:49.270Z,2.05
2022-08-23T15:31:17.754Z,1.95
2022-08-23T15:33:44.740Z,1.90
2022-08-23T15:36:14.198Z,2.10
2022-08-23T15:38:43.991Z,2.28
2022-08-23T15:41:11.147Z,1.92
2022-08-23T15:43:39.740Z,1.95
2022-08-23T15:46:18.236Z,2.63
2022-08-23T15:48:50.565Z,1.90
2022-08-23T15:51:19.099Z,1.77
2022-08-23T15:53:46.495Z,1.75
2022-08-23T15:56:21.139Z,1.92
2022-08-23T15:58:48.680Z,1.77
2022-08-23T16:01:19.883Z,2.00
2022-08-23T16:03:49.930Z,1.77
2022-08-23T16:06:17.180Z,1.95
2022-08-23T16:08:48.855Z,1.98
2022-08-23T16:11:15.840Z,1.60
2022-08-23T16:13:46.257Z,1.75
2022-08-23T16:16:23.791Z,2.13
2022-08-23T16:18:53.254Z,1.88
2022-08-23T16:21:22.487Z,2.05
2022-08-23T16:23:49.570Z,1.77
2022-08-23T16:26:21.634Z,2.25
2022-08-23T16:28:51.817Z,1.90
2022-08-23T16:31:21.347Z,1.83
2022-08-23T16:34:06.610Z,2.05
2022-08-23T16:36:33.916Z,1.88
2022-08-23T16:39:00.784Z,2.08
2022-08-23T16:41:27.574Z,2.13
2022-08-23T16:43:54.421Z,2.42
2022-08-23T16:46:23.553Z,2.20
2022-08-23T16:48:50.401Z,1.80
2022-08-23T16:51:17.941Z,1.75
2022-08-23T16:53:44.869Z,1.95
2022-08-23T16:56:29.487Z,2.10
2022-08-23T16:58:56.852Z,2.00
2022-08-23T17:01:24.254Z,1.77
2022-08-23T17:03:51.892Z,2.10
2022-08-23T17:06:19.053Z,1.90
2022-08-23T17:08:46.306Z,2.80
2022-08-23T17:11:15.967Z,2.10
2022-08-23T17:13:43.457Z,1.90
2022-08-23T17:16:10.820Z,1.80
2022-08-23T17:18:42.538Z,1.92
2022-08-23T17:21:09.583Z,1.80
2022-08-23T17:23:40.787Z,1.50
2022-08-23T17:26:10.105Z,1.38
2022-08-23T17:28:40.546Z,1.20
2022-08-23T17:31:07.727Z,1.50
2022-08-23T17:33:35.549Z,1.50
2022-08-23T17:36:03.402Z,1.52
2022-08-23T17:38:33.007Z,1.33
2022-08-23T17:41:01.602Z,1.42
2022-08-23T17:43:28.480Z,1.35
2022-08-23T17:45:55.912Z,1.50
2022-08-23T17:48:23.752Z,1.40
2022-08-23T17:50:50.823Z,1.40
2022-08-23T17:53:18.769Z,1.35
2022-08-23T17:55:46.341Z,1.48
2022-08-23T17:58:14.311Z,1.90
2022-08-23T18:00:41.655Z,1.73
2022-08-23T18:03:08.854Z,1.35
2022-08-23T18:05:40.074Z,1.35
2022-08-23T18:08:08.357Z,1.23
2022-08-23T18:10:36.095Z,1.70
2022-08-23T18:13:03.697Z,1.48
2022-08-23T18:15:31.441Z,1.17
2022-08-23T18:18:00.162Z,1.73
2022-08-23T18:20:28.875Z,1.80
2022-08-23T18:22:56.959Z,1.50
2022-08-23T18:25:24.109Z,1.60
2022-08-23T18:28:10.214Z,1.25
2022-08-23T18:30:56.157Z,1.38
2022-08-23T18:33:25.384Z,1.85
2022-08-23T18:35:59.360Z,1.52
2022-08-23T18:38:26.515Z,1.50
2022-08-23T18:40:53.686Z,1.65
2022-08-23T18:43:26.999Z,1.80
2022-08-23T18:46:05.238Z,1.33
2022-08-23T18:48:32.689Z,2.00
2022-08-23T18:51:00.246Z,1.50
2022-08-23T18:53:28.223Z,1.33
2022-08-23T18:55:55.531Z,1.48
2022-08-23T18:58:22.778Z,1.73
2022-08-23T19:00:50.669Z,1.33
2022-08-23T19:03:18.434Z,1.30
2022-08-23T19:05:45.802Z,1.52
2022-08-23T19:08:13.523Z,1.30
2022-08-23T19:10:42.292Z,1.30
2022-08-23T19:13:10.208Z,1.40
2022-08-23T19:15:38.225Z,1.20
2022-08-23T19:18:05.254Z,1.80
2022-08-23T19:20:32.633Z,1.83
2022-08-23T19:22:59.932Z,1.52
2022-08-23T19:25:27.981Z,1.40
2022-08-23T19:27:58.870Z,1.60
2022-08-23T19:30:28.522Z,1.45
2022-08-23T19:32:56.735Z,1.50
2022-08-23T19:35:23.761Z,1.45
2022-08-23T19:37:50.754Z,1.45
2022-08-23T19:40:18.074Z,1.33
2022-08-23T19:42:45.899Z,1.23
2022-08-23T19:45:13.212Z,1.20
2022-08-23T19:47:40.741Z,1.33
2022-08-23T19:50:10.026Z,1.50
2022-08-23T19:52:37.722Z,1.27
2022-08-23T19:55:07.267Z,1.73
2022-08-23T19:57:36.843Z,1.30
2022-08-23T20:00:10.095Z,1.40
2022-08-23T20:02:36.993Z,1.25
2022-08-23T20:05:06.685Z,1.58
2022-08-23T20:07:37.946Z,1.40
2022-08-23T20:10:06.754Z,1.30
2022-08-23T20:12:33.980Z,1.40
2022-08-23T20:15:01.714Z,1.42
2022-08-23T20:17:28.598Z,1.40
2022-08-23T20:19:55.474Z,1.30
2022-08-23T20:22:41.199Z,1.33
2022-08-23T20:25:08.764Z,1.40
2022-08-23T20:27:38.482Z,1.50
2022-08-23T20:30:07.965Z,1.70
2022-08-23T20:32:35.722Z,1.30
2022-08-23T20:35:05.838Z,1.58
2022-08-23T20:37:33.708Z,1.60
2022-08-23T20:40:00.885Z,1.50
2022-08-23T20:42:27.907Z,1.80
2022-08-23T20:44:54.968Z,1.40
2022-08-23T20:47:22.269Z,1.75
2022-08-23T20:49:49.250Z,1.27
2022-08-23T20:52:18.272Z,1.45
2022-08-23T20:54:45.986Z,1.55
2022-08-23T20:57:12.955Z,1.80
2022-08-23T20:59:44.191Z,1.50
2022-08-23T21:02:11.784Z,1.55
2022-08-23T21:04:40.243Z,1.60
2022-08-23T21:07:08.445Z,1.63
2022-08-23T21:09:35.959Z,1.55
2022-08-23T21:12:02.984Z,1.55
2022-08-23T21:14:29.820Z,1.45
2022-08-23T21:16:56.622Z,1.30
2022-08-23T21:19:23.423Z,1.45
2022-08-23T21:21:50.660Z,1.77
2022-08-23T21:24:17.494Z,1.45
2022-08-23T21:26:44.358Z,1.80
2022-08-23T21:29:11.331Z,1.42
2022-08-23T21:31:38.880Z,1.65
2022-08-23T21:34:08.646Z,1.50
2022-08-23T21:36:36.341Z,1.38
2022-08-23T21:39:04.831Z,1.80
2022-08-23T21:41:33.978Z,2.00
2022-08-23T21:44:02.433Z,1.90
2022-08-23T21:46:29.333Z,2.42
2022-08-23T21:48:56.159Z,1.95
2022-08-23T21:51:23.279Z,1.73
2022-08-23T21:53:50.228Z,1.67
2022-08-23T21:56:17.787Z,1.50
2022-08-23T21:58:44.888Z,1.50
2022-08-23T22:01:12.340Z,1.77
2022-08-23T22:03:39.281Z,2.22
2022-08-23T22:06:13.059Z,1.48
2022-08-23T22:08:40.995Z,1.63
2022-08-23T22:11:07.946Z,1.63
2022-08-23T22:13:35.955Z,1.83
2022-08-23T22:16:03.740Z,1.55
2022-08-23T22:18:31.402Z,1.63
2022-08-23T22:20:58.835Z,1.38
2022-08-23T22:23:27.617Z,1.75
2022-08-23T22:26:02.262Z,1.50
2022-08-23T22:28:31.329Z,1.60
2022-08-23T22:31:01.475Z,1.55
2022-08-23T22:33:28.743Z,1.90
2022-08-23T22:36:01.252Z,1.60
2022-08-23T22:38:28.128Z,1.38
2022-08-23T22:40:54.961Z,1.60
2022-08-23T22:43:21.827Z,1.48
2022-08-23T22:45:55.280Z,1.58
2022-08-23T22:48:22.678Z,1.70
2022-08-23T22:50:49.605Z,1.48
2022-08-23T22:53:18.033Z,1.40
2022-08-23T22:55:50.661Z,1.65
2022-08-23T22:58:17.854Z,1.60
2022-08-23T23:00:45.146Z,1.58
2022-08-23T23:03:12.001Z,1.85
2022-08-23T23:05:38.950Z,1.85
2022-08-23T23:08:24.623Z,1.60
2022-08-23T23:10:51.475Z,1.70
2022-08-23T23:13:18.291Z,1.50
2022-08-23T23:15:45.149Z,1.58
2022-08-23T23:18:12.081Z,1.42
2022-08-23T23:20:41.952Z,1.50
2022-08-23T23:23:12.622Z,1.60
2022-08-23T23:25:40.232Z,1.42
2022-08-23T23:28:07.404Z,1.45
2022-08-23T23:30:35.467Z,1.70
2022-08-23T23:33:03.211Z,1.75
2022-08-23T23:35:30.658Z,1.67
2022-08-23T23:37:57.618Z,1.40
2022-08-23T23:40:25.814Z,1.77
2022-08-23T23:42:52.860Z,1.58
2022-08-23T23:45:20.723Z,1.75
2022-08-23T23:47:47.534Z,1.50
2022-08-23T23:50:14.625Z,1.63
2022-08-23T23:52:42.341Z,1.35
2022-08-23T23:55:14.378Z,1.70
2022-08-23T23:57:41.491Z,1.70
